sensor_id;sensor_type;location;lat;lon;timestamp;pressure;altitude;pressure_sealevel;temperature;humidity
55994;BME280;67425;52.126;20.638;2023-12-22T00:00:09;57948.34;;;-144.78;100.00
55994;BME280;67425;52.126;20.638;2023-12-22T00:02:34;57954.56;;;-144.78;100.00
55994;BME280;67425;52.126;20.638;2023-12-22T00:04:59;57940.03;;;-144.78;100.00
55994;BME280;67425;52.126;20.638;2023-12-22T00:07:25;57942.09;;;-144.78;100.00
55994;BME280;67425;52.126;20.638;2023-12-22T00:09:51;57915.09;;;-144.78;100.00
55994;BME280;67425;52.126;20.638;2023-12-22T00:12:16;57929.63;;;-144.78;100.00
55994;BME280;67425;52.126;20.638;2023-12-22T00:14:41;57925.50;;;-144.78;100.00
55994;BME280;67425;52.126;20.638;2023-12-22T00:17:07;57952.50;;;-144.78;100.00
55994;BME280;67425;52.126;20.638;2023-12-22T00:19:32;57954.56;;;-144.78;100.00
55994;BME280;67425;52.126;20.638;2023-12-22T00:21:58;57919.25;;;-144.78;100.00
55994;BME280;67425;52.126;20.638;2023-12-22T00:24:24;57958.72;;;-144.78;100.00
55994;BME280;67425;52.126;20.638;2023-12-22T00:26:49;57952.50;;;-144.78;100.00
55994;BME280;67425;52.126;20.638;2023-12-22T00:29:14;57935.88;;;-144.78;100.00
55994;BME280;67425;52.126;20.638;2023-12-22T00:31:40;57925.50;;;-144.78;100.00
55994;BME280;67425;52.126;20.638;2023-12-22T00:34:05;57940.03;;;-144.78;100.00
55994;BME280;67425;52.126;20.638;2023-12-22T00:36:30;57956.63;;;-144.78;100.00
55994;BME280;67425;52.126;20.638;2023-12-22T00:38:56;57950.41;;;-144.78;100.00
55994;BME280;67425;52.126;20.638;2023-12-22T00:41:21;57940.03;;;-144.78;100.00
55994;BME280;67425;52.126;20.638;2023-12-22T00:43:46;57944.19;;;-144.78;100.00
55994;BME280;67425;52.126;20.638;2023-12-22T00:46:13;57950.41;;;-144.78;100.00
55994;BME280;67425;52.126;20.638;2023-12-22T00:48:38;57915.09;;;-144.78;100.00
55994;BME280;67425;52.126;20.638;2023-12-22T00:51:05;57954.56;;;-144.78;100.00
55994;BME280;67425;52.126;20.638;2023-12-22T00:53:31;57960.78;;;-144.78;100.00
55994;BME280;67425;52.126;20.638;2023-12-22T00:55:56;57942.09;;;-144.78;100.00
55994;BME280;67425;52.126;20.638;2023-12-22T00:58:22;57935.88;;;-144.78;100.00
55994;BME280;67425;52.126;20.638;2023-12-22T01:00:47;57940.03;;;-144.78;100.00
55994;BME280;67425;52.126;20.638;2023-12-22T01:03:13;57952.50;;;-144.78;100.00
55994;BME280;67425;52.126;20.638;2023-12-22T01:05:38;57971.19;;;-144.78;100.00
55994;BME280;67425;52.126;20.638;2023-12-22T01:08:03;57954.56;;;-144.78;100.00
55994;BME280;67425;52.126;20.638;2023-12-22T01:10:29;57954.56;;;-144.78;99.65
55994;BME280;67425;52.126;20.638;2023-12-22T01:12:54;57931.72;;;-144.78;100.00
55994;BME280;67425;52.126;20.638;2023-12-22T01:15:19;57964.94;;;-144.78;100.00
55994;BME280;67425;52.126;20.638;2023-12-22T01:17:45;57967.03;;;-144.78;100.00
55994;BME280;67425;52.126;20.638;2023-12-22T01:20:10;57964.94;;;-144.78;100.00
55994;BME280;67425;52.126;20.638;2023-12-22T01:22:36;57960.78;;;-144.78;100.00
55994;BME280;67425;52.126;20.638;2023-12-22T01:25:04;57929.63;;;-144.78;100.00
55994;BME280;67425;52.126;20.638;2023-12-22T01:27:30;57933.78;;;-144.78;100.00
55994;BME280;67425;52.126;20.638;2023-12-22T01:29:56;57958.72;;;-144.78;99.60
55994;BME280;67425;52.126;20.638;2023-12-22T01:32:21;57944.19;;;-144.78;99.63
55994;BME280;67425;52.126;20.638;2023-12-22T01:34:46;57933.78;;;-144.78;99.54
55994;BME280;67425;52.126;20.638;2023-12-22T01:37:12;57952.50;;;-144.78;99.43
55994;BME280;67425;52.126;20.638;2023-12-22T01:39:37;57917.19;;;-144.78;99.41
55994;BME280;67425;52.126;20.638;2023-12-22T01:42:03;57940.03;;;-144.78;99.06
55994;BME280;67425;52.126;20.638;2023-12-22T01:44:29;57919.25;;;-144.78;99.16
55994;BME280;67425;52.126;20.638;2023-12-22T01:46:54;57946.25;;;-144.78;99.00
55994;BME280;67425;52.126;20.638;2023-12-22T01:49:21;57937.94;;;-144.78;99.19
55994;BME280;67425;52.126;20.638;2023-12-22T01:51:47;57973.25;;;-144.78;98.94
55994;BME280;67425;52.126;20.638;2023-12-22T01:54:13;57962.88;;;-144.78;98.62
55994;BME280;67425;52.126;20.638;2023-12-22T01:56:41;57935.88;;;-144.78;98.75
55994;BME280;67425;52.126;20.638;2023-12-22T01:59:07;57950.41;;;-144.78;98.43
55994;BME280;67425;52.126;20.638;2023-12-22T02:01:33;57958.72;;;-144.78;98.59
55994;BME280;67425;52.126;20.638;2023-12-22T02:03:59;57933.78;;;-144.78;99.10
55994;BME280;67425;52.126;20.638;2023-12-22T02:06:25;57937.94;;;-144.78;98.97
55994;BME280;67425;52.126;20.638;2023-12-22T02:08:50;57929.63;;;-144.78;99.23
55994;BME280;67425;52.126;20.638;2023-12-22T02:11:16;57948.34;;;-144.78;99.59
55994;BME280;67425;52.126;20.638;2023-12-22T02:13:45;57962.88;;;-144.78;99.06
55994;BME280;67425;52.126;20.638;2023-12-22T02:16:20;57937.94;;;-144.78;99.65
55994;BME280;67425;52.126;20.638;2023-12-22T02:18:52;57950.41;;;-144.78;99.33
55994;BME280;67425;52.126;20.638;2023-12-22T02:21:20;57967.03;;;-144.78;99.79
55994;BME280;67425;52.126;20.638;2023-12-22T02:23:47;57960.78;;;-144.78;100.00
55994;BME280;67425;52.126;20.638;2023-12-22T02:26:27;57950.41;;;-144.78;100.00
55994;BME280;67425;52.126;20.638;2023-12-22T02:28:55;57948.34;;;-144.78;100.00
55994;BME280;67425;52.126;20.638;2023-12-22T02:31:31;57958.72;;;-144.78;100.00
55994;BME280;67425;52.126;20.638;2023-12-22T02:33:58;57969.09;;;-144.78;100.00
55994;BME280;67425;52.126;20.638;2023-12-22T02:36:25;57952.50;;;-144.78;100.00
55994;BME280;67425;52.126;20.638;2023-12-22T02:38:53;57967.03;;;-144.78;99.57
55994;BME280;67425;52.126;20.638;2023-12-22T02:41:20;57931.72;;;-144.78;99.06
55994;BME280;67425;52.126;20.638;2023-12-22T02:43:46;57954.56;;;-144.78;98.99
55994;BME280;67425;52.126;20.638;2023-12-22T02:46:15;57952.50;;;-144.78;97.88
55994;BME280;67425;52.126;20.638;2023-12-22T02:48:41;57933.78;;;-144.78;98.21
55994;BME280;67425;52.126;20.638;2023-12-22T02:51:06;57937.94;;;-144.78;97.05
55994;BME280;67425;52.126;20.638;2023-12-22T02:53:31;57950.41;;;-144.78;98.47
55994;BME280;67425;52.126;20.638;2023-12-22T02:55:57;57948.34;;;-144.78;97.65
55994;BME280;67425;52.126;20.638;2023-12-22T02:58:22;57935.88;;;-144.78;98.03
55994;BME280;67425;52.126;20.638;2023-12-22T03:00:47;57929.63;;;-144.78;98.78
55994;BME280;67425;52.126;20.638;2023-12-22T03:03:13;57946.25;;;-144.78;99.27
55994;BME280;67425;52.126;20.638;2023-12-22T03:05:38;57971.19;;;-144.78;100.00
55994;BME280;67425;52.126;20.638;2023-12-22T03:08:04;57948.34;;;-144.78;100.00
55994;BME280;67425;52.126;20.638;2023-12-22T03:10:29;57929.63;;;-144.78;100.00
55994;BME280;67425;52.126;20.638;2023-12-22T03:12:55;57969.09;;;-144.78;100.00
55994;BME280;67425;52.126;20.638;2023-12-22T03:15:20;57946.25;;;-144.78;100.00
55994;BME280;67425;52.126;20.638;2023-12-22T03:17:46;57950.41;;;-144.78;100.00
55994;BME280;67425;52.126;20.638;2023-12-22T03:20:11;57933.78;;;-144.78;100.00
55994;BME280;67425;52.126;20.638;2023-12-22T03:22:37;57946.25;;;-144.78;100.00
55994;BME280;67425;52.126;20.638;2023-12-22T03:25:02;57971.19;;;-144.78;100.00
55994;BME280;67425;52.126;20.638;2023-12-22T03:27:27;57975.34;;;-144.78;100.00
55994;BME280;67425;52.126;20.638;2023-12-22T03:29:53;57946.25;;;-144.78;100.00
55994;BME280;67425;52.126;20.638;2023-12-22T03:32:18;57937.94;;;-144.78;100.00
55994;BME280;67425;52.126;20.638;2023-12-22T03:34:44;57935.88;;;-144.78;100.00
55994;BME280;67425;52.126;20.638;2023-12-22T03:37:09;57973.25;;;-144.78;100.00
55994;BME280;67425;52.126;20.638;2023-12-22T03:39:35;57940.03;;;-144.78;100.00
55994;BME280;67425;52.126;20.638;2023-12-22T03:42:00;57956.63;;;-144.78;100.00
55994;BME280;67425;52.126;20.638;2023-12-22T03:44:25;57967.03;;;-144.78;100.00
55994;BME280;67425;52.126;20.638;2023-12-22T03:46:51;57942.09;;;-144.78;100.00
55994;BME280;67425;52.126;20.638;2023-12-22T03:49:16;57954.56;;;-144.78;100.00
55994;BME280;67425;52.126;20.638;2023-12-22T03:51:42;57910.94;;;-144.78;99.84
55994;BME280;67425;52.126;20.638;2023-12-22T03:54:07;57933.78;;;-144.78;100.00
55994;BME280;67425;52.126;20.638;2023-12-22T03:56:33;57967.03;;;-144.78;100.00
55994;BME280;67425;52.126;20.638;2023-12-22T03:58:58;57952.50;;;-144.78;100.00
55994;BME280;67425;52.126;20.638;2023-12-22T04:01:24;57958.72;;;-144.78;100.00
55994;BME280;67425;52.126;20.638;2023-12-22T04:03:49;57937.94;;;-144.78;100.00
55994;BME280;67425;52.126;20.638;2023-12-22T04:06:15;57952.50;;;-144.78;100.00
55994;BME280;67425;52.126;20.638;2023-12-22T04:08:40;57958.72;;;-144.78;100.00
55994;BME280;67425;52.126;20.638;2023-12-22T04:11:05;57937.94;;;-144.78;100.00
55994;BME280;67425;52.126;20.638;2023-12-22T04:13:31;57987.78;;;-144.78;100.00
55994;BME280;67425;52.126;20.638;2023-12-22T04:15:56;57962.88;;;-144.78;100.00
55994;BME280;67425;52.126;20.638;2023-12-22T04:18:21;57950.41;;;-144.78;100.00
55994;BME280;67425;52.126;20.638;2023-12-22T04:20:47;57952.50;;;-144.78;100.00
55994;BME280;67425;52.126;20.638;2023-12-22T04:23:14;57962.88;;;-144.78;100.00
55994;BME280;67425;52.126;20.638;2023-12-22T04:25:40;57977.41;;;-144.78;100.00
55994;BME280;67425;52.126;20.638;2023-12-22T04:28:05;57971.19;;;-144.78;100.00
55994;BME280;67425;52.126;20.638;2023-12-22T04:30:30;57989.88;;;-144.78;100.00
55994;BME280;67425;52.126;20.638;2023-12-22T04:32:56;57971.19;;;-144.78;100.00
55994;BME280;67425;52.126;20.638;2023-12-22T04:35:21;57981.56;;;-144.78;100.00
55994;BME280;67425;52.126;20.638;2023-12-22T04:37:47;57981.56;;;-144.78;100.00
55994;BME280;67425;52.126;20.638;2023-12-22T04:40:12;57954.56;;;-144.78;100.00
55994;BME280;67425;52.126;20.638;2023-12-22T04:42:37;57975.34;;;-144.78;100.00
55994;BME280;67425;52.126;20.638;2023-12-22T04:45:03;57969.09;;;-144.78;100.00
55994;BME280;67425;52.126;20.638;2023-12-22T04:47:28;57956.63;;;-144.78;100.00
55994;BME280;67425;52.126;20.638;2023-12-22T04:49:54;57954.56;;;-144.78;100.00
55994;BME280;67425;52.126;20.638;2023-12-22T04:52:19;58002.34;;;-144.78;100.00
55994;BME280;67425;52.126;20.638;2023-12-22T04:54:44;57975.34;;;-144.78;100.00
55994;BME280;67425;52.126;20.638;2023-12-22T04:57:10;57971.19;;;-144.78;100.00
55994;BME280;67425;52.126;20.638;2023-12-22T04:59:35;57981.56;;;-144.78;100.00
55994;BME280;67425;52.126;20.638;2023-12-22T05:02:00;57967.03;;;-144.78;100.00
55994;BME280;67425;52.126;20.638;2023-12-22T05:04:26;57960.78;;;-144.78;100.00
55994;BME280;67425;52.126;20.638;2023-12-22T05:06:51;58002.34;;;-144.78;100.00
55994;BME280;67425;52.126;20.638;2023-12-22T05:09:17;57991.94;;;-144.78;100.00
55994;BME280;67425;52.126;20.638;2023-12-22T05:11:42;57948.34;;;-144.78;100.00
55994;BME280;67425;52.126;20.638;2023-12-22T05:14:10;57987.78;;;-144.78;100.00
55994;BME280;67425;52.126;20.638;2023-12-22T05:16:36;58014.81;;;-144.78;100.00
55994;BME280;67425;52.126;20.638;2023-12-22T05:19:02;57983.66;;;-144.78;100.00
55994;BME280;67425;52.126;20.638;2023-12-22T05:21:27;57996.09;;;-144.78;100.00
55994;BME280;67425;52.126;20.638;2023-12-22T05:23:55;57969.09;;;-144.78;100.00
55994;BME280;67425;52.126;20.638;2023-12-22T05:26:21;57942.09;;;-144.78;100.00
55994;BME280;67425;52.126;20.638;2023-12-22T05:28:47;57975.34;;;-144.78;100.00
55994;BME280;67425;52.126;20.638;2023-12-22T05:31:12;57958.72;;;-144.78;100.00
55994;BME280;67425;52.126;20.638;2023-12-22T05:33:38;57981.56;;;-144.78;100.00
55994;BME280;67425;52.126;20.638;2023-12-22T05:36:03;57971.19;;;-144.78;100.00
55994;BME280;67425;52.126;20.638;2023-12-22T05:38:29;57989.88;;;-144.78;100.00
55994;BME280;67425;52.126;20.638;2023-12-22T05:40:54;57971.19;;;-144.78;100.00
55994;BME280;67425;52.126;20.638;2023-12-22T05:43:20;57962.88;;;-144.78;100.00
55994;BME280;67425;52.126;20.638;2023-12-22T05:45:45;57981.56;;;-144.78;100.00
55994;BME280;67425;52.126;20.638;2023-12-22T05:48:10;57991.94;;;-144.78;100.00
55994;BME280;67425;52.126;20.638;2023-12-22T05:50:36;57956.63;;;-144.78;100.00
55994;BME280;67425;52.126;20.638;2023-12-22T05:53:01;57985.72;;;-144.78;100.00
55994;BME280;67425;52.126;20.638;2023-12-22T05:55:26;57985.72;;;-144.78;100.00
55994;BME280;67425;52.126;20.638;2023-12-22T05:57:52;57962.88;;;-144.78;99.57
55994;BME280;67425;52.126;20.638;2023-12-22T06:00:17;57983.66;;;-144.78;99.13
55994;BME280;67425;52.126;20.638;2023-12-22T06:02:42;57971.19;;;-144.78;98.97
55994;BME280;67425;52.126;20.638;2023-12-22T06:05:08;57946.25;;;-144.78;97.51
55994;BME280;67425;52.126;20.638;2023-12-22T06:07:33;57975.34;;;-144.78;96.87
55994;BME280;67425;52.126;20.638;2023-12-22T06:09:59;57973.25;;;-144.78;95.99
55994;BME280;67425;52.126;20.638;2023-12-22T06:12:24;57950.41;;;-144.78;93.48
55994;BME280;67425;52.126;20.638;2023-12-22T06:14:49;57942.09;;;-144.78;93.76
55994;BME280;67425;52.126;20.638;2023-12-22T06:17:15;57973.25;;;-144.78;92.85
55994;BME280;67425;52.126;20.638;2023-12-22T06:19:40;57967.03;;;-144.78;92.03
55994;BME280;67425;52.126;20.638;2023-12-22T06:22:05;57927.56;;;-144.78;91.54
55994;BME280;67425;52.126;20.638;2023-12-22T06:24:31;57946.25;;;-144.78;90.80
55994;BME280;67425;52.126;20.638;2023-12-22T06:26:56;57942.09;;;-144.78;87.19
55994;BME280;67425;52.126;20.638;2023-12-22T06:29:22;57964.94;;;-144.78;88.18
55994;BME280;67425;52.126;20.638;2023-12-22T06:31:48;57983.66;;;-144.78;87.34
55994;BME280;67425;52.126;20.638;2023-12-22T06:34:16;57958.72;;;-144.78;86.35
55994;BME280;67425;52.126;20.638;2023-12-22T06:36:42;57931.72;;;-144.78;86.96
55994;BME280;67425;52.126;20.638;2023-12-22T06:39:08;57971.19;;;-144.78;86.30
55994;BME280;67425;52.126;20.638;2023-12-22T06:41:33;57962.88;;;-144.78;86.96
55994;BME280;67425;52.126;20.638;2023-12-22T06:43:59;57942.09;;;-144.78;87.79
55994;BME280;67425;52.126;20.638;2023-12-22T06:46:28;57975.34;;;-144.78;88.95
55994;BME280;67425;52.126;20.638;2023-12-22T06:48:57;57942.09;;;-144.78;88.79
55994;BME280;67425;52.126;20.638;2023-12-22T06:51:30;57956.63;;;-144.78;89.39
55994;BME280;67425;52.126;20.638;2023-12-22T06:53:56;57933.78;;;-144.78;90.23
55994;BME280;67425;52.126;20.638;2023-12-22T06:56:27;57964.94;;;-144.78;88.19
55994;BME280;67425;52.126;20.638;2023-12-22T06:58:54;57983.66;;;-144.78;87.40
55994;BME280;67425;52.126;20.638;2023-12-22T07:01:22;57983.66;;;-144.78;88.48
55994;BME280;67425;52.126;20.638;2023-12-22T07:03:48;57971.19;;;-144.78;88.21
55994;BME280;67425;52.126;20.638;2023-12-22T07:06:19;57991.94;;;-144.78;88.79
55994;BME280;67425;52.126;20.638;2023-12-22T07:11:44;57975.34;;;-144.78;88.43
55994;BME280;67425;52.126;20.638;2023-12-22T07:14:11;57962.88;;;-144.78;88.40
55994;BME280;67425;52.126;20.638;2023-12-22T07:16:36;57956.63;;;-144.78;88.95
55994;BME280;67425;52.126;20.638;2023-12-22T07:19:02;57958.72;;;-144.78;89.23
55994;BME280;67425;52.126;20.638;2023-12-22T07:21:28;57981.56;;;-144.78;90.02
55994;BME280;67425;52.126;20.638;2023-12-22T07:23:54;57973.25;;;-144.78;91.04
55994;BME280;67425;52.126;20.638;2023-12-22T07:26:19;57973.25;;;-144.78;91.58
55994;BME280;67425;52.126;20.638;2023-12-22T07:28:46;57967.03;;;-144.78;92.04
55994;BME280;67425;52.126;20.638;2023-12-22T07:31:12;57969.09;;;-144.78;91.45
55994;BME280;67425;52.126;20.638;2023-12-22T07:33:37;57979.50;;;-144.78;91.45
55994;BME280;67425;52.126;20.638;2023-12-22T07:36:03;57996.09;;;-144.78;91.48
55994;BME280;67425;52.126;20.638;2023-12-22T07:38:29;57975.34;;;-144.78;91.46
55994;BME280;67425;52.126;20.638;2023-12-22T07:40:54;57996.09;;;-144.78;90.52
55994;BME280;67425;52.126;20.638;2023-12-22T07:43:19;57975.34;;;-144.78;88.98
55994;BME280;67425;52.126;20.638;2023-12-22T07:45:45;57985.72;;;-144.78;87.96
55994;BME280;67425;52.126;20.638;2023-12-22T07:48:10;57991.94;;;-144.78;89.01
55994;BME280;67425;52.126;20.638;2023-12-22T07:50:35;57987.78;;;-144.78;89.13
55994;BME280;67425;52.126;20.638;2023-12-22T07:53:01;57956.63;;;-144.78;89.59
55994;BME280;67425;52.126;20.638;2023-12-22T07:55:26;57979.50;;;-144.78;89.34
55994;BME280;67425;52.126;20.638;2023-12-22T07:57:52;58004.41;;;-144.78;90.26
55994;BME280;67425;52.126;20.638;2023-12-22T08:00:18;57946.25;;;-144.78;90.63
55994;BME280;67425;52.126;20.638;2023-12-22T08:02:43;57969.09;;;-144.78;90.57
55994;BME280;67425;52.126;20.638;2023-12-22T08:05:09;58000.25;;;-144.78;90.74
55994;BME280;67425;52.126;20.638;2023-12-22T08:07:35;57973.25;;;-144.78;90.82
55994;BME280;67425;52.126;20.638;2023-12-22T08:10:00;57964.94;;;-144.78;90.75
55994;BME280;67425;52.126;20.638;2023-12-22T08:12:27;58014.81;;;-144.78;91.78
55994;BME280;67425;52.126;20.638;2023-12-22T08:14:53;57987.78;;;-144.78;92.17
55994;BME280;67425;52.126;20.638;2023-12-22T08:17:18;57975.34;;;-144.78;92.69
55994;BME280;67425;52.126;20.638;2023-12-22T08:19:44;57983.66;;;-144.78;93.25
55994;BME280;67425;52.126;20.638;2023-12-22T08:22:10;58004.41;;;-144.78;93.70
55994;BME280;67425;52.126;20.638;2023-12-22T08:24:35;57979.50;;;-144.78;94.19
55994;BME280;67425;52.126;20.638;2023-12-22T08:27:01;57985.72;;;-144.78;94.13
55994;BME280;67425;52.126;20.638;2023-12-22T08:29:26;57979.50;;;-144.78;94.03
55994;BME280;67425;52.126;20.638;2023-12-22T08:31:52;57975.34;;;-144.78;94.07
55994;BME280;67425;52.126;20.638;2023-12-22T08:34:17;57977.41;;;-144.78;94.00
55994;BME280;67425;52.126;20.638;2023-12-22T08:36:42;57975.34;;;-144.78;94.24
55994;BME280;67425;52.126;20.638;2023-12-22T08:39:08;57969.09;;;-144.78;93.46
55994;BME280;67425;52.126;20.638;2023-12-22T08:41:33;57989.88;;;-144.78;94.06
55994;BME280;67425;52.126;20.638;2023-12-22T08:44:02;57981.56;;;-144.78;93.81
55994;BME280;67425;52.126;20.638;2023-12-22T08:46:28;57977.41;;;-144.78;93.57
55994;BME280;67425;52.126;20.638;2023-12-22T08:48:54;57964.94;;;-144.78;93.22
55994;BME280;67425;52.126;20.638;2023-12-22T08:51:19;57952.50;;;-144.78;92.68
55994;BME280;67425;52.126;20.638;2023-12-22T08:53:45;57962.88;;;-144.78;92.19
55994;BME280;67425;52.126;20.638;2023-12-22T08:56:10;57977.41;;;-144.78;92.99
55994;BME280;67425;52.126;20.638;2023-12-22T08:58:35;57975.34;;;-144.78;91.96
55994;BME280;67425;52.126;20.638;2023-12-22T09:01:01;57962.88;;;-144.78;90.99
55994;BME280;67425;52.126;20.638;2023-12-22T09:03:26;57971.19;;;-144.78;90.29
55994;BME280;67425;52.126;20.638;2023-12-22T09:05:53;57964.94;;;-144.78;90.08
55994;BME280;67425;52.126;20.638;2023-12-22T09:08:18;57944.19;;;-144.78;89.41
55994;BME280;67425;52.126;20.638;2023-12-22T09:10:44;57964.94;;;-144.78;89.46
55994;BME280;67425;52.126;20.638;2023-12-22T09:13:10;57925.50;;;-144.78;89.03
55994;BME280;67425;52.126;20.638;2023-12-22T09:15:36;57923.41;;;-144.78;88.66
55994;BME280;67425;52.126;20.638;2023-12-22T09:18:02;57940.03;;;-144.78;88.04
55994;BME280;67425;52.126;20.638;2023-12-22T09:20:28;57944.19;;;-144.78;87.25
55994;BME280;67425;52.126;20.638;2023-12-22T09:22:55;57944.19;;;-144.78;88.15
55994;BME280;67425;52.126;20.638;2023-12-22T09:25:22;57954.56;;;-144.78;88.01
55994;BME280;67425;52.126;20.638;2023-12-22T09:27:47;57948.34;;;-144.78;87.87
55994;BME280;67425;52.126;20.638;2023-12-22T09:30:13;57948.34;;;-144.78;87.57
55994;BME280;67425;52.126;20.638;2023-12-22T09:32:38;57950.41;;;-144.78;86.89
55994;BME280;67425;52.126;20.638;2023-12-22T09:35:04;57940.03;;;-144.78;86.38
55994;BME280;67425;52.126;20.638;2023-12-22T09:37:29;57933.78;;;-144.78;87.07
55994;BME280;67425;52.126;20.638;2023-12-22T09:39:54;57975.34;;;-144.78;87.54
55994;BME280;67425;52.126;20.638;2023-12-22T09:42:21;57940.03;;;-144.78;86.25
55994;BME280;67425;52.126;20.638;2023-12-22T09:44:48;57940.03;;;-144.78;86.99
55994;BME280;67425;52.126;20.638;2023-12-22T09:47:15;57950.41;;;-144.78;86.30
55994;BME280;67425;52.126;20.638;2023-12-22T09:49:43;57923.41;;;-144.78;86.55
55994;BME280;67425;52.126;20.638;2023-12-22T09:52:10;57950.41;;;-144.78;86.92
55994;BME280;67425;52.126;20.638;2023-12-22T09:54:37;57929.63;;;-144.78;86.82
55994;BME280;67425;52.126;20.638;2023-12-22T09:57:03;57946.25;;;-144.78;87.35
55994;BME280;67425;52.126;20.638;2023-12-22T09:59:30;57935.88;;;-144.78;87.67
55994;BME280;67425;52.126;20.638;2023-12-22T10:01:57;57944.19;;;-144.78;87.57
55994;BME280;67425;52.126;20.638;2023-12-22T10:04:23;57954.56;;;-144.78;88.31
55994;BME280;67425;52.126;20.638;2023-12-22T10:06:50;57956.63;;;-144.78;89.28
55994;BME280;67425;52.126;20.638;2023-12-22T10:09:17;58021.03;;;-144.78;100.00
55994;BME280;67425;52.126;20.638;2023-12-22T10:11:48;58039.72;;;-144.78;100.00
55994;BME280;67425;52.126;20.638;2023-12-22T10:14:14;58027.25;;;-144.78;100.00
55994;BME280;67425;52.126;20.638;2023-12-22T10:16:48;58033.50;;;-144.78;100.00
55994;BME280;67425;52.126;20.638;2023-12-22T10:19:14;58062.56;;;-144.78;100.00
55994;BME280;67425;52.126;20.638;2023-12-22T10:21:40;57942.09;;;-144.78;100.00
55994;BME280;67425;52.126;20.638;2023-12-22T10:24:05;57960.78;;;-144.78;100.00
55994;BME280;67425;52.126;20.638;2023-12-22T10:26:30;57960.78;;;-144.78;100.00
55994;BME280;67425;52.126;20.638;2023-12-22T10:28:56;57942.09;;;-144.78;100.00
55994;BME280;67425;52.126;20.638;2023-12-22T10:31:21;57973.25;;;-144.78;100.00
55994;BME280;67425;52.126;20.638;2023-12-22T10:33:46;57956.63;;;-144.78;100.00
55994;BME280;67425;52.126;20.638;2023-12-22T10:36:12;57962.88;;;-144.78;100.00
55994;BME280;67425;52.126;20.638;2023-12-22T10:38:37;57927.56;;;-144.78;97.88
55994;BME280;67425;52.126;20.638;2023-12-22T10:41:03;57940.03;;;-144.78;99.43
55994;BME280;67425;52.126;20.638;2023-12-22T10:43:30;57954.56;;;-144.78;99.59
55994;BME280;67425;52.126;20.638;2023-12-22T10:45:55;57929.63;;;-144.78;98.55
55994;BME280;67425;52.126;20.638;2023-12-22T10:48:22;57933.78;;;-144.78;98.87
55994;BME280;67425;52.126;20.638;2023-12-22T10:50:48;57925.50;;;-144.78;98.56
55994;BME280;67425;52.126;20.638;2023-12-22T10:53:14;57908.88;;;-144.78;95.56
55994;BME280;67425;52.126;20.638;2023-12-22T10:55:39;57908.88;;;-144.78;95.83
55994;BME280;67425;52.126;20.638;2023-12-22T10:58:05;57933.78;;;-144.78;94.60
55994;BME280;67425;52.126;20.638;2023-12-22T11:00:32;57923.41;;;-144.78;94.95
55994;BME280;67425;52.126;20.638;2023-12-22T11:03:01;57894.34;;;-144.78;93.26
55994;BME280;67425;52.126;20.638;2023-12-22T11:05:32;57913.03;;;-144.78;93.59
55994;BME280;67425;52.126;20.638;2023-12-22T11:07:59;57904.72;;;-144.78;92.49
55994;BME280;67425;52.126;20.638;2023-12-22T11:10:27;57946.25;;;-144.78;93.61
55994;BME280;67425;52.126;20.638;2023-12-22T11:12:56;57908.88;;;-144.78;92.85
55994;BME280;67425;52.126;20.638;2023-12-22T11:15:22;57908.88;;;-144.78;92.01
55994;BME280;67425;52.126;20.638;2023-12-22T11:17:49;57927.56;;;-144.78;92.51
55994;BME280;67425;52.126;20.638;2023-12-22T11:20:17;57906.78;;;-144.78;91.21
55994;BME280;67425;52.126;20.638;2023-12-22T11:22:43;57904.72;;;-144.78;91.41
55994;BME280;67425;52.126;20.638;2023-12-22T11:25:09;57898.50;;;-144.78;91.10
55994;BME280;67425;52.126;20.638;2023-12-22T11:27:36;57892.25;;;-144.78;90.74
55994;BME280;67425;52.126;20.638;2023-12-22T11:30:04;57921.34;;;-144.78;92.74
55994;BME280;67425;52.126;20.638;2023-12-22T11:32:34;57919.25;;;-144.78;91.95
55994;BME280;67425;52.126;20.638;2023-12-22T11:34:59;57925.50;;;-144.78;90.76
55994;BME280;67425;52.126;20.638;2023-12-22T11:37:25;57931.72;;;-144.78;92.60
55994;BME280;67425;52.126;20.638;2023-12-22T11:39:51;57861.09;;;-144.78;87.59
55994;BME280;67425;52.126;20.638;2023-12-22T11:42:20;57881.88;;;-144.78;87.16
55994;BME280;67425;52.126;20.638;2023-12-22T11:44:46;57892.25;;;-144.78;88.59
55994;BME280;67425;52.126;20.638;2023-12-22T11:47:13;57908.88;;;-144.78;90.30
55994;BME280;67425;52.126;20.638;2023-12-22T11:49:39;57886.03;;;-144.78;89.01
55994;BME280;67425;52.126;20.638;2023-12-22T11:52:13;57890.19;;;-144.78;89.90
55994;BME280;67425;52.126;20.638;2023-12-22T11:57:38;57888.09;;;-144.78;88.42
55994;BME280;67425;52.126;20.638;2023-12-22T12:00:10;57873.56;;;-144.78;88.46
55994;BME280;67425;52.126;20.638;2023-12-22T12:02:57;57850.72;;;-144.78;86.41
55994;BME280;67425;52.126;20.638;2023-12-22T12:05:23;57832.03;;;-144.78;87.10
55994;BME280;67425;52.126;20.638;2023-12-22T12:07:48;57892.25;;;-144.78;85.97
55994;BME280;67425;52.126;20.638;2023-12-22T12:13:09;57888.09;;;-144.78;86.89
55994;BME280;67425;52.126;20.638;2023-12-22T12:15:35;57859.03;;;-144.78;87.41
55994;BME280;67425;52.126;20.638;2023-12-22T12:18:02;57900.56;;;-144.78;86.85
55994;BME280;67425;52.126;20.638;2023-12-22T12:20:28;57900.56;;;-144.78;87.60
55994;BME280;67425;52.126;20.638;2023-12-22T12:22:54;57877.72;;;-144.78;86.52
55994;BME280;67425;52.126;20.638;2023-12-22T12:25:22;57867.34;;;-144.78;86.95
55994;BME280;67425;52.126;20.638;2023-12-22T12:28:01;57883.94;;;-144.78;87.38